Time;durP1;ratioP1;P1;durP2;ratioP2;P2;SDS_P1;SDS_P2;PMS_P1;PMS_P2;Temp;Humidity;BMP_temperature;BMP_pressure;BME280_temperature;BME280_humidity;BME280_pressure;Samples;Min_cycle;Max_cycle;Signal;HPM_P1;HPM_P2
2023/06/03 00:01:17;;;;;;;1.85;1.05;;;20.80;55.10;;;;;;5071756;28;20094;-61
2023/06/03 00:03:44;;;;;;;2.25;0.90;;;20.80;55.10;;;;;;5073122;28;20068;-62
2023/06/03 00:06:10;;;;;;;3.35;1.08;;;20.80;55.10;;;;;;5072731;28;20040;-62
2023/06/03 00:08:35;;;;;;;2.03;0.95;;;20.70;55.00;;;;;;5072087;28;20040;-62
2023/06/03 00:11:01;;;;;;;1.90;1.00;;;20.80;55.10;;;;;;5072872;28;20032;-62
2023/06/03 00:13:26;;;;;;;1.45;0.88;;;20.70;55.10;;;;;;5072152;28;20477;-62
2023/06/03 00:15:52;;;;;;;2.13;1.10;;;20.70;55.00;;;;;;5072240;28;20045;-62
2023/06/03 00:18:17;;;;;;;2.08;0.93;;;20.70;55.00;;;;;;5072402;28;20086;-62
2023/06/03 00:20:47;;;;;;;1.52;0.85;;;20.70;55.00;;;;;;5072022;28;20048;-62
2023/06/03 00:23:16;;;;;;;1.60;0.95;;;20.80;55.10;;;;;;5071482;28;20105;-62
2023/06/03 00:25:41;;;;;;;3.03;0.80;;;20.70;55.00;;;;;;5072777;28;20155;-62
2023/06/03 00:28:07;;;;;;;2.40;0.90;;;20.70;55.00;;;;;;5071112;28;20123;-62
2023/06/03 00:30:33;;;;;;;1.70;0.77;;;20.70;54.90;;;;;;5072541;28;20048;-62
2023/06/03 00:32:59;;;;;;;1.80;1.15;;;20.70;54.90;;;;;;5072647;28;20076;-62
2023/06/03 00:35:25;;;;;;;2.10;1.00;;;20.70;54.90;;;;;;5071454;28;20049;-62
2023/06/03 00:37:51;;;;;;;2.15;1.02;;;20.70;54.90;;;;;;5072637;28;20059;-62
2023/06/03 00:40:17;;;;;;;1.60;0.95;;;20.70;54.90;;;;;;5072183;28;20062;-62
2023/06/03 00:42:42;;;;;;;3.10;1.10;;;20.70;54.90;;;;;;5071473;28;20036;-62
2023/06/03 00:45:08;;;;;;;1.92;0.95;;;20.70;54.90;;;;;;5072318;28;20075;-62
2023/06/03 00:47:33;;;;;;;1.85;0.90;;;20.70;54.90;;;;;;5073463;28;20040;-62
2023/06/03 00:49:59;;;;;;;2.72;0.95;;;20.70;54.90;;;;;;5075885;28;20120;-62
2023/06/03 00:52:25;;;;;;;2.17;0.82;;;20.70;54.90;;;;;;5074663;28;20547;-62
2023/06/03 00:54:52;;;;;;;1.20;0.80;;;20.70;54.90;;;;;;5075329;28;20037;-62
2023/06/03 00:57:19;;;;;;;1.48;0.90;;;20.70;54.80;;;;;;5074074;28;20041;-62
2023/06/03 00:59:45;;;;;;;1.87;0.83;;;20.70;54.80;;;;;;5075178;28;20080;-62
2023/06/03 01:02:12;;;;;;;2.05;0.70;;;20.70;54.80;;;;;;5075924;28;20079;-62
2023/06/03 01:04:37;;;;;;;2.67;1.00;;;20.60;54.80;;;;;;5074043;28;20446;-62
2023/06/03 01:07:20;;;;;;;1.73;0.90;;;20.60;54.70;;;;;;5076067;28;20496;-62
2023/06/03 01:09:52;;;;;;;1.30;0.70;;;20.60;54.70;;;;;;5058212;28;20036;-61
2023/06/03 01:12:29;;;;;;;2.70;1.02;;;20.60;54.70;;;;;;5075071;28;20086;-62
2023/06/03 01:14:59;;;;;;;2.05;0.80;;;20.60;54.70;;;;;;5074800;28;20484;-62
2023/06/03 01:17:30;;;;;;;2.15;0.70;;;20.60;54.70;;;;;;5073887;28;20044;-62
2023/06/03 01:19:56;;;;;;;1.50;0.80;;;20.60;54.70;;;;;;5074560;28;20064;-62
2023/06/03 01:22:24;;;;;;;2.03;0.77;;;20.60;54.70;;;;;;5074142;28;20184;-62
2023/06/03 01:24:50;;;;;;;1.65;0.80;;;20.60;54.60;;;;;;5075166;28;20041;-62
2023/06/03 01:27:20;;;;;;;2.22;0.80;;;20.60;54.60;;;;;;5075223;28;20049;-62
2023/06/03 01:29:46;;;;;;;1.70;0.82;;;20.60;54.60;;;;;;5075525;28;20052;-62
2023/06/03 01:32:13;;;;;;;1.25;0.70;;;20.60;54.60;;;;;;5074370;28;20050;-62
2023/06/03 01:34:39;;;;;;;1.48;0.60;;;20.60;54.60;;;;;;5075454;28;20048;-62
2023/06/03 01:37:05;;;;;;;1.75;0.80;;;20.60;54.60;;;;;;5074398;28;20498;-62
2023/06/03 01:39:31;;;;;;;1.92;0.77;;;20.60;54.60;;;;;;5073820;28;20119;-62
2023/06/03 01:41:56;;;;;;;1.48;0.68;;;20.60;54.60;;;;;;5075678;28;20040;-62
2023/06/03 01:44:22;;;;;;;1.67;0.80;;;20.60;54.60;;;;;;5073682;28;20132;-63
2023/06/03 01:46:47;;;;;;;3.35;0.85;;;20.50;54.50;;;;;;5074823;28;20068;-62
2023/06/03 01:49:13;;;;;;;1.65;0.80;;;20.50;54.50;;;;;;5074854;28;20458;-62
2023/06/03 01:51:39;;;;;;;1.55;0.70;;;20.50;54.50;;;;;;5075105;28;20045;-62
2023/06/03 01:54:05;;;;;;;2.55;0.80;;;20.50;54.50;;;;;;5074317;28;20052;-62
2023/06/03 01:56:30;;;;;;;1.42;0.65;;;20.50;54.50;;;;;;5074924;28;20040;-62
2023/06/03 01:58:56;;;;;;;1.58;0.70;;;20.60;54.50;;;;;;5073451;28;20504;-62
2023/06/03 02:01:21;;;;;;;1.85;0.70;;;20.50;54.40;;;;;;5073807;28;20388;-62
2023/06/03 02:03:47;;;;;;;1.55;0.80;;;20.50;54.40;;;;;;5073855;28;20403;-62
2023/06/03 02:06:13;;;;;;;1.20;0.60;;;20.50;54.40;;;;;;5074167;28;20036;-62
2023/06/03 02:08:39;;;;;;;1.10;0.60;;;20.50;54.40;;;;;;5075068;28;20044;-62
2023/06/03 02:11:04;;;;;;;1.95;0.70;;;20.50;54.40;;;;;;5074800;28;20194;-62
2023/06/03 02:13:30;;;;;;;1.55;0.73;;;20.50;54.40;;;;;;5073573;28;20210;-62
2023/06/03 02:15:55;;;;;;;1.48;0.63;;;20.50;54.40;;;;;;5073474;28;20484;-62
2023/06/03 02:18:21;;;;;;;0.98;0.63;;;20.50;54.40;;;;;;5074258;28;20041;-62
2023/06/03 02:20:46;;;;;;;1.55;0.90;;;20.50;54.40;;;;;;5073832;28;20080;-62
2023/06/03 02:23:12;;;;;;;1.52;0.70;;;20.50;54.30;;;;;;5074492;28;20075;-62
2023/06/03 02:25:38;;;;;;;1.30;0.70;;;20.50;54.40;;;;;;5074609;28;20048;-62
2023/06/03 02:28:04;;;;;;;2.05;0.73;;;20.50;54.40;;;;;;5073540;28;20057;-62
2023/06/03 02:30:30;;;;;;;1.42;0.63;;;20.50;54.40;;;;;;5074131;28;20139;-62
2023/06/03 02:32:55;;;;;;;1.42;0.68;;;20.50;54.30;;;;;;5074311;28;20076;-62
2023/06/03 02:35:21;;;;;;;1.45;0.70;;;20.50;54.30;;;;;;5073439;28;20042;-62
2023/06/03 02:37:47;;;;;;;1.95;0.70;;;20.50;54.30;;;;;;5074507;28;20571;-62
2023/06/03 02:40:12;;;;;;;1.20;0.60;;;20.50;54.30;;;;;;5074251;28;20040;-62
2023/06/03 02:42:38;;;;;;;1.15;0.50;;;20.50;54.30;;;;;;5073573;28;20392;-62
2023/06/03 02:45:04;;;;;;;2.15;0.80;;;20.50;54.30;;;;;;5074431;28;20045;-62
2023/06/03 02:47:30;;;;;;;2.17;0.73;;;20.40;54.30;;;;;;5073989;28;20040;-62
2023/06/03 02:49:56;;;;;;;1.63;0.68;;;20.40;54.20;;;;;;5073465;28;20453;-62
2023/06/03 02:52:22;;;;;;;1.08;0.60;;;20.40;54.30;;;;;;5072452;28;20098;-62
2023/06/03 02:54:48;;;;;;;0.93;0.47;;;20.40;54.30;;;;;;5074159;28;20044;-62
2023/06/03 02:57:14;;;;;;;1.38;0.60;;;20.40;54.30;;;;;;5071755;28;20083;-62
2023/06/03 02:59:40;;;;;;;1.83;0.50;;;20.40;54.30;;;;;;5073805;28;20075;-61
2023/06/03 03:02:06;;;;;;;1.95;0.70;;;20.40;54.20;;;;;;5073329;28;20407;-62
2023/06/03 03:04:36;;;;;;;1.50;0.50;;;20.40;54.30;;;;;;5073241;28;20472;-62
2023/06/03 03:07:05;;;;;;;1.33;0.57;;;20.40;54.20;;;;;;5073979;28;20044;-62
2023/06/03 03:09:31;;;;;;;1.95;0.80;;;20.40;54.20;;;;;;5073188;28;20037;-63
2023/06/03 03:11:56;;;;;;;1.45;0.50;;;20.40;54.20;;;;;;5073118;28;20361;-62
2023/06/03 03:14:22;;;;;;;2.20;0.70;;;20.40;54.20;;;;;;5073374;28;20044;-62
2023/06/03 03:16:47;;;;;;;0.82;0.43;;;20.40;54.20;;;;;;5072696;28;20037;-61
2023/06/03 03:19:13;;;;;;;0.60;0.40;;;20.40;54.20;;;;;;5073398;28;20128;-62
2023/06/03 03:21:39;;;;;;;1.40;0.70;;;20.40;54.20;;;;;;5073964;28;20048;-62
2023/06/03 03:24:05;;;;;;;1.25;0.57;;;20.40;54.90;;;;;;5072809;28;20082;-62
2023/06/03 03:26:31;;;;;;;1.05;0.60;;;20.40;54.20;;;;;;5073441;28;20064;-62
2023/06/03 03:28:56;;;;;;;1.58;0.60;;;20.40;54.20;;;;;;5073076;28;20048;-62
2023/06/03 03:31:22;;;;;;;1.00;0.50;;;20.30;54.10;;;;;;5072073;28;20048;-62
2023/06/03 03:33:48;;;;;;;2.35;0.73;;;20.30;54.10;;;;;;5073266;28;20048;-62
2023/06/03 03:36:20;;;;;;;1.52;0.65;;;20.30;54.10;;;;;;5071692;28;20064;-62
2023/06/03 03:38:49;;;;;;;1.95;0.70;;;20.30;54.10;;;;;;5071246;28;20050;-62
2023/06/03 03:41:15;;;;;;;1.33;0.60;;;20.30;54.10;;;;;;5072872;28;20063;-61
2023/06/03 03:43:40;;;;;;;1.25;0.50;;;20.30;54.80;;;;;;5073330;28;20468;-62
2023/06/03 03:46:09;;;;;;;1.00;0.50;;;20.30;54.10;;;;;;5071970;28;20396;-62
2023/06/03 03:48:36;;;;;;;1.50;0.50;;;20.30;54.10;;;;;;5073249;28;20037;-62
2023/06/03 03:51:01;;;;;;;0.90;0.47;;;20.30;54.20;;;;;;5073104;28;20044;-62
2023/06/03 03:53:30;;;;;;;1.05;0.55;;;20.30;54.10;;;;;;5072010;28;20123;-62
2023/06/03 03:55:56;;;;;;;1.10;0.40;;;20.30;54.10;;;;;;5072858;28;20071;-62
2023/06/03 03:58:39;;;;;;;1.02;0.50;;;20.30;54.10;;;;;;5072635;28;20036;-62
2023/06/03 04:01:12;;;;;;;0.80;0.55;;;20.30;54.10;;;;;;5071900;28;20189;-61
2023/06/03 04:03:41;;;;;;;1.42;0.50;;;20.30;54.10;;;;;;5071280;28;20040;-62
2023/06/03 04:06:11;;;;;;;1.23;0.55;;;20.30;54.10;;;;;;5070531;28;20852;-61
2023/06/03 04:08:44;;;;;;;1.27;0.50;;;20.30;54.10;;;;;;5072808;28;20040;-62
2023/06/03 04:11:23;;;;;;;1.50;0.60;;;20.30;54.10;;;;;;5072611;28;20048;-62
2023/06/03 04:13:49;;;;;;;1.45;0.60;;;20.30;54.20;;;;;;5072100;28;20097;-62
2023/06/03 04:16:44;;;;;;;0.90;0.40;;;20.30;54.20;;;;;;5072531;28;20040;-62
2023/06/03 04:19:29;;;;;;;0.80;0.47;;;20.30;54.20;;;;;;5071072;28;20536;-62
2023/06/03 04:21:55;;;;;;;1.92;0.60;;;20.30;54.20;;;;;;5070826;28;20044;-62
2023/06/03 04:24:20;;;;;;;1.38;0.50;;;20.30;54.20;;;;;;5071167;28;20424;-62
2023/06/03 04:26:47;;;;;;;0.98;0.60;;;20.30;54.20;;;;;;5072664;28;20068;-62
2023/06/03 04:29:12;;;;;;;1.00;0.50;;;20.30;54.30;;;;;;5070026;28;20109;-62
2023/06/03 04:31:38;;;;;;;0.88;0.50;;;20.30;54.30;;;;;;5072360;28;20049;-61
2023/06/03 04:34:03;;;;;;;1.17;0.55;;;20.30;54.30;;;;;;5071735;28;20052;-62
2023/06/03 04:36:29;;;;;;;0.90;0.50;;;20.30;54.30;;;;;;5072234;28;20488;-62
2023/06/03 04:38:55;;;;;;;1.05;0.47;;;20.40;54.30;;;;;;5072595;28;20098;-62
2023/06/03 04:41:20;;;;;;;0.77;0.40;;;20.40;54.20;;;;;;5070497;28;20051;-62
2023/06/03 04:43:47;;;;;;;0.73;0.50;;;20.40;54.20;;;;;;5072347;28;20412;-62
2023/06/03 04:46:14;;;;;;;0.98;0.50;;;20.40;54.20;;;;;;5072229;28;20041;-62
2023/06/03 04:48:45;;;;;;;1.02;0.50;;;20.40;54.10;;;;;;5071647;28;20048;-62
2023/06/03 04:51:11;;;;;;;1.00;0.57;;;20.40;54.10;;;;;;5070727;28;20037;-62
2023/06/03 04:53:36;;;;;;;1.63;0.50;;;20.50;54.10;;;;;;5072601;28;20048;-62
2023/06/03 04:56:03;;;;;;;1.50;0.40;;;20.40;54.10;;;;;;5071673;28;20032;-62
2023/06/03 04:58:28;;;;;;;1.02;0.40;;;20.50;54.80;;;;;;5070953;28;20508;-62
2023/06/03 05:00:54;;;;;;;1.60;0.60;;;20.50;54.10;;;;;;5072201;28;20128;-62
2023/06/03 05:03:19;;;;;;;1.52;0.50;;;20.50;54.00;;;;;;5071489;28;20480;-61
2023/06/03 05:05:45;;;;;;;1.50;0.60;;;20.50;54.00;;;;;;5072256;28;20044;-62
2023/06/03 05:08:11;;;;;;;0.95;0.57;;;20.50;54.00;;;;;;5072014;28;20109;-64
2023/06/03 05:10:36;;;;;;;1.42;0.52;;;20.50;54.00;;;;;;5071285;28;20076;-62
2023/06/03 05:13:03;;;;;;;0.80;0.50;;;20.50;54.00;;;;;;5072036;28;20048;-62
2023/06/03 05:15:28;;;;;;;0.63;0.40;;;20.50;53.90;;;;;;5071730;28;20044;-62
2023/06/03 05:17:54;;;;;;;1.45;0.40;;;20.60;54.00;;;;;;5071573;28;20098;-62
2023/06/03 05:20:19;;;;;;;0.85;0.47;;;20.60;54.00;;;;;;5072005;28;20094;-62
2023/06/03 05:22:45;;;;;;;0.77;0.50;;;20.60;54.00;;;;;;5071957;28;20041;-62
2023/06/03 05:25:12;;;;;;;1.60;0.60;;;20.60;53.90;;;;;;5071037;28;20043;-62
2023/06/03 05:27:37;;;;;;;1.17;0.55;;;20.60;53.90;;;;;;5072059;28;20477;-62
2023/06/03 05:30:03;;;;;;;1.10;0.50;;;20.60;53.90;;;;;;5071761;28;20061;-62
2023/06/03 05:32:29;;;;;;;1.50;0.50;;;20.60;53.80;;;;;;5071103;28;20106;-62
2023/06/03 05:34:54;;;;;;;0.80;0.47;;;20.60;53.80;;;;;;5074761;28;20044;-62
2023/06/03 05:37:21;;;;;;;1.42;0.60;;;20.70;53.90;;;;;;5074379;28;20052;-62
2023/06/03 05:39:46;;;;;;;1.10;0.40;;;20.70;53.90;;;;;;5075707;28;20036;-62
2023/06/03 05:42:12;;;;;;;1.10;0.55;;;20.70;53.90;;;;;;5075279;28;20050;-62
2023/06/03 05:44:37;;;;;;;1.60;0.50;;;20.70;53.90;;;;;;5074818;28;20040;-62
2023/06/03 05:47:03;;;;;;;1.10;0.50;;;20.70;53.80;;;;;;5075574;28;20083;-62
2023/06/03 05:49:29;;;;;;;1.73;0.68;;;20.70;53.90;;;;;;5074949;28;20040;-62
2023/06/03 05:51:54;;;;;;;1.08;0.50;;;20.70;53.90;;;;;;5074502;28;20049;-62
2023/06/03 05:54:20;;;;;;;0.65;0.47;;;20.70;53.80;;;;;;5075108;28;20045;-62
2023/06/03 05:56:45;;;;;;;0.88;0.50;;;20.70;53.90;;;;;;5075401;28;20047;-62
2023/06/03 05:59:11;;;;;;;0.77;0.40;;;20.70;53.90;;;;;;5072649;28;20117;-62
2023/06/03 06:01:36;;;;;;;1.92;0.52;;;20.70;53.90;;;;;;5073757;28;20068;-61
2023/06/03 06:04:02;;;;;;;1.75;0.40;;;20.70;53.90;;;;;;5073796;28;20079;-62
2023/06/03 06:06:28;;;;;;;1.13;0.47;;;20.80;54.00;;;;;;5074043;28;20037;-62
2023/06/03 06:08:53;;;;;;;0.73;0.40;;;20.70;53.90;;;;;;5074919;28;20044;-62
2023/06/03 06:11:19;;;;;;;1.58;0.57;;;20.70;53.90;;;;;;5074693;28;20151;-62
2023/06/03 06:13:44;;;;;;;0.50;0.35;;;20.80;53.90;;;;;;5074093;28;20075;-62
2023/06/03 06:16:10;;;;;;;0.88;0.50;;;20.80;53.90;;;;;;5074716;28;20048;-62
2023/06/03 06:18:35;;;;;;;1.95;0.43;;;20.80;53.90;;;;;;5074816;28;20044;-61
2023/06/03 06:21:01;;;;;;;1.52;0.50;;;20.80;53.90;;;;;;5074008;28;20051;-62
2023/06/03 06:23:26;;;;;;;0.82;0.40;;;20.80;53.90;;;;;;5074380;28;20496;-61
2023/06/03 06:25:53;;;;;;;0.75;0.43;;;20.80;53.90;;;;;;5073395;28;20404;-62
2023/06/03 06:28:21;;;;;;;0.70;0.32;;;20.80;53.90;;;;;;5073287;28;20061;-62
2023/06/03 06:30:46;;;;;;;0.90;0.47;;;20.80;53.90;;;;;;5074700;28;20106;-62
2023/06/03 06:33:13;;;;;;;1.00;0.47;;;20.80;54.00;;;;;;5074369;28;20484;-61
2023/06/03 06:35:39;;;;;;;1.05;0.47;;;20.80;54.00;;;;;;5073738;28;20132;-61
2023/06/03 06:38:04;;;;;;;0.95;0.40;;;20.80;53.90;;;;;;5073144;28;20472;-62
2023/06/03 06:40:32;;;;;;;1.33;0.57;;;20.80;53.90;;;;;;5072821;28;20048;-62
2023/06/03 06:42:58;;;;;;;;;;;20.80;54.00;;;;;;5073290;28;20526;-62
2023/06/03 06:45:28;;;;;;;1.83;0.40;;;20.80;54.60;;;;;;5072951;28;19920;-62
2023/06/03 06:48:09;;;;;;;1.25;0.40;;;20.80;53.90;;;;;;5073539;28;20040;-61
2023/06/03 06:50:41;;;;;;;1.02;0.43;;;20.80;53.90;;;;;;5074286;28;20040;-62
2023/06/03 06:53:07;;;;;;;1.52;0.43;;;20.80;53.90;;;;;;5072807;28;20114;-62
2023/06/03 06:55:48;;;;;;;1.92;0.57;;;20.80;53.90;;;;;;5073284;28;20500;-62
2023/06/03 06:58:13;;;;;;;2.05;0.30;;;20.80;53.90;;;;;;5072253;28;20431;-62
2023/06/03 07:00:39;;;;;;;1.20;0.50;;;20.80;53.90;;;;;;5074121;28;20528;-62
2023/06/03 07:03:12;;;;;;;1.15;0.40;;;20.80;53.90;;;;;;5072147;28;20056;-61
2023/06/03 07:05:37;;;;;;;0.38;0.38;;;20.80;53.90;;;;;;5073733;28;20411;-61
2023/06/03 07:08:03;;;;;;;1.08;0.50;;;20.80;53.90;;;;;;5073550;28;20037;-62
2023/06/03 07:10:29;;;;;;;1.52;0.50;;;20.80;53.90;;;;;;5072842;28;20048;-61
2023/06/03 07:12:55;;;;;;;1.08;0.40;;;20.80;53.80;;;;;;5073597;28;20057;-61
2023/06/03 07:15:22;;;;;;;1.10;0.40;;;20.80;53.80;;;;;;5073415;28;20037;-62
2023/06/03 07:17:53;;;;;;;1.10;0.40;;;20.80;53.80;;;;;;5072782;28;20123;-61
2023/06/03 07:20:40;;;;;;;1.73;0.43;;;20.90;53.70;;;;;;5073332;28;20131;-62
2023/06/03 07:23:18;;;;;;;0.93;0.40;;;20.90;53.70;;;;;;5072319;28;20496;-62
2023/06/03 07:25:44;;;;;;;0.82;0.50;;;20.90;53.60;;;;;;5073318;28;20440;-62
2023/06/03 07:28:14;;;;;;;1.05;0.50;;;20.90;53.60;;;;;;5072841;28;20143;-62
2023/06/03 07:30:40;;;;;;;2.08;0.50;;;20.90;53.60;;;;;;5072450;28;20110;-61
2023/06/03 07:33:09;;;;;;;1.08;0.45;;;20.90;53.50;;;;;;5073129;28;20040;-61
2023/06/03 07:35:35;;;;;;;0.80;0.40;;;20.90;53.50;;;;;;5073366;28;20480;-62
2023/06/03 07:38:02;;;;;;;1.52;0.43;;;20.90;53.40;;;;;;5072361;28;20094;-62
2023/06/03 07:40:41;;;;;;;1.40;0.50;;;20.90;53.40;;;;;;5071575;28;20044;-62
2023/06/03 07:43:08;;;;;;;0.90;0.40;;;21.00;53.50;;;;;;5072662;28;20086;-61
2023/06/03 07:45:34;;;;;;;1.08;0.50;;;21.00;53.50;;;;;;5072386;28;20056;-61
2023/06/03 07:48:02;;;;;;;0.35;0.30;;;21.00;53.50;;;;;;5071878;28;20045;-62
2023/06/03 07:50:28;;;;;;;0.70;0.47;;;21.00;53.40;;;;;;5072872;28;20115;-61
2023/06/03 07:53:03;;;;;;;1.52;0.40;;;21.00;53.40;;;;;;5072173;28;20120;-61
2023/06/03 07:55:41;;;;;;;0.93;0.45;;;21.10;53.40;;;;;;5072931;28;20039;-61
2023/06/03 07:58:09;;;;;;;0.70;0.40;;;21.10;53.40;;;;;;5070054;28;20036;-61
2023/06/03 08:00:35;;;;;;;1.75;0.50;;;21.10;54.00;;;;;;5073007;28;20040;-61
2023/06/03 08:03:01;;;;;;;1.75;0.50;;;21.10;53.20;;;;;;5055138;28;20040;-61
2023/06/03 08:05:36;;;;;;;1.42;0.50;;;21.10;53.20;;;;;;5072033;28;20052;-62
2023/06/03 08:08:05;;;;;;;0.65;0.30;;;21.10;53.20;;;;;;5072928;28;20037;-63
2023/06/03 08:10:32;;;;;;;0.80;0.40;;;21.20;53.20;;;;;;5072899;28;20044;-61
2023/06/03 08:12:58;;;;;;;1.77;0.60;;;21.20;53.10;;;;;;5070884;28;20457;-61
2023/06/03 08:15:30;;;;;;;0.98;0.40;;;21.20;53.10;;;;;;5072446;28;20033;-61
2023/06/03 08:17:56;;;;;;;1.38;0.30;;;21.20;53.00;;;;;;5072765;28;20507;-61
2023/06/03 08:20:30;;;;;;;0.55;0.30;;;21.20;53.00;;;;;;5070603;28;20040;-61
2023/06/03 08:22:56;;;;;;;0.88;0.38;;;21.20;53.60;;;;;;5071729;28;20167;-61
2023/06/03 08:25:22;;;;;;;0.90;0.40;;;21.20;52.90;;;;;;5072238;28;20446;-61
2023/06/03 08:27:48;;;;;;;0.80;0.40;;;21.20;52.90;;;;;;5071773;28;20128;-61
2023/06/03 08:30:14;;;;;;;1.17;0.47;;;21.20;52.80;;;;;;5070962;28;20389;-61
2023/06/03 08:32:40;;;;;;;0.68;0.40;;;21.20;52.80;;;;;;5072469;28;20040;-61
2023/06/03 08:35:13;;;;;;;0.90;0.40;;;21.30;52.80;;;;;;5071680;28;20076;-61
2023/06/03 08:37:38;;;;;;;0.90;0.43;;;21.30;52.80;;;;;;5072583;28;20086;-61
2023/06/03 08:40:09;;;;;;;1.20;0.40;;;21.30;52.80;;;;;;5071285;28;20132;-61
2023/06/03 08:42:45;;;;;;;1.02;0.40;;;21.30;52.70;;;;;;5072542;28;20124;-61
2023/06/03 08:45:11;;;;;;;1.55;0.38;;;21.30;52.70;;;;;;5072264;28;20127;-61
2023/06/03 08:47:40;;;;;;;1.23;0.40;;;21.20;52.60;;;;;;5071787;28;20037;-61
2023/06/03 08:50:08;;;;;;;1.13;0.40;;;21.20;52.60;;;;;;5072099;28;20083;-61
2023/06/03 08:52:35;;;;;;;0.73;0.38;;;21.20;52.50;;;;;;5071122;28;20044;-61
2023/06/03 08:55:01;;;;;;;0.52;0.40;;;21.20;52.50;;;;;;5071795;28;20032;-61
2023/06/03 08:57:33;;;;;;;1.10;0.50;;;21.20;52.50;;;;;;5072069;28;20055;-61
2023/06/03 08:59:59;;;;;;;0.80;0.30;;;21.20;52.60;;;;;;5072333;28;20090;-61
2023/06/03 09:02:24;;;;;;;1.45;0.40;;;21.20;52.60;;;;;;5069866;28;20119;-61
2023/06/03 09:04:50;;;;;;;0.93;0.50;;;21.20;52.60;;;;;;5072212;28;20093;-61
2023/06/03 09:07:15;;;;;;;0.63;0.30;;;21.20;52.50;;;;;;5072037;28;20076;-61
2023/06/03 09:09:41;;;;;;;0.73;0.30;;;21.20;52.60;;;;;;5072977;28;20052;-61
2023/06/03 09:12:07;;;;;;;0.70;0.55;;;21.20;52.50;;;;;;5074680;28;20048;-61
2023/06/03 09:14:32;;;;;;;0.68;0.35;;;21.20;52.40;;;;;;5074517;28;20048;-61
2023/06/03 09:16:58;;;;;;;0.70;0.30;;;21.30;52.40;;;;;;5075144;28;20086;-61
2023/06/03 09:19:26;;;;;;;0.80;0.40;;;21.30;52.30;;;;;;5074501;28;20119;-61
2023/06/03 09:21:52;;;;;;;0.73;0.40;;;21.30;52.30;;;;;;5076031;28;20484;-61
2023/06/03 09:24:18;;;;;;;0.68;0.30;;;21.30;52.30;;;;;;5057182;28;20089;-61
2023/06/03 09:26:43;;;;;;;1.00;0.30;;;21.30;52.20;;;;;;5075723;28;20041;-61
2023/06/03 09:29:11;;;;;;;1.25;0.50;;;21.30;52.20;;;;;;5057294;28;20055;-61
2023/06/03 09:31:37;;;;;;;0.88;0.40;;;21.30;52.10;;;;;;5073787;28;20098;-61
2023/06/03 09:34:02;;;;;;;1.05;0.40;;;21.40;52.10;;;;;;5075491;28;20048;-61
2023/06/03 09:36:28;;;;;;;1.13;0.50;;;21.40;52.00;;;;;;5074666;28;20066;-61
2023/06/03 09:38:55;;;;;;;0.70;0.40;;;21.40;52.00;;;;;;5075731;28;20083;-61
2023/06/03 09:41:27;;;;;;;0.63;0.30;;;21.40;51.90;;;;;;5075298;28;20119;-61
2023/06/03 09:43:56;;;;;;;1.83;0.50;;;21.40;51.80;;;;;;5074853;28;20048;-61
2023/06/03 09:46:22;;;;;;;1.02;0.40;;;21.40;51.70;;;;;;5074949;28;20044;-61
2023/06/03 09:48:48;;;;;;;0.77;0.30;;;21.50;51.80;;;;;;5075247;28;20373;-61
2023/06/03 09:51:14;;;;;;;0.98;0.40;;;21.50;51.70;;;;;;5073238;28;20098;-61
2023/06/03 09:53:39;;;;;;;1.08;0.38;;;21.50;51.70;;;;;;5075465;28;20040;-61
2023/06/03 09:56:25;;;;;;;1.58;0.40;;;21.50;51.60;;;;;;5075162;28;20048;-61
2023/06/03 09:58:52;;;;;;;1.63;0.70;;;21.50;52.20;;;;;;5074103;28;20450;-61
2023/06/03 10:01:31;;;;;;;2.10;0.40;;;21.50;51.50;;;;;;5073489;28;20399;-61
2023/06/03 10:03:58;;;;;;;0.70;0.40;;;21.50;51.40;;;;;;5075345;28;20063;-61
2023/06/03 10:06:23;;;;;;;0.60;0.30;;;21.50;51.40;;;;;;5074226;28;20107;-61
2023/06/03 10:08:49;;;;;;;0.75;0.30;;;21.50;51.30;;;;;;5074990;28;20120;-61
2023/06/03 10:11:14;;;;;;;1.35;0.47;;;21.50;51.20;;;;;;5074354;28;20094;-61
2023/06/03 10:13:40;;;;;;;0.57;0.30;;;21.50;51.20;;;;;;5073814;28;20044;-62
2023/06/03 10:16:09;;;;;;;0.70;0.40;;;21.50;51.20;;;;;;5074692;28;20123;-62
2023/06/03 10:18:36;;;;;;;0.68;0.40;;;21.50;51.10;;;;;;5074123;28;20085;-62
2023/06/03 10:21:20;;;;;;;1.10;0.40;;;21.50;51.20;;;;;;5074650;28;20094;-61
2023/06/03 10:23:46;;;;;;;0.77;0.38;;;21.50;51.10;;;;;;5057010;28;20045;-61
2023/06/03 10:26:11;;;;;;;0.98;0.43;;;21.50;51.20;;;;;;5072620;28;20040;-62
2023/06/03 10:28:37;;;;;;;1.13;0.40;;;21.40;51.10;;;;;;5074348;28;20044;-62
2023/06/03 10:31:04;;;;;;;0.82;0.30;;;21.40;51.00;;;;;;5074743;28;20381;-62
2023/06/03 10:33:30;;;;;;;0.68;0.30;;;21.40;51.00;;;;;;5072413;28;20048;-61
2023/06/03 10:35:56;;;;;;;0.52;0.30;;;21.40;51.00;;;;;;5073523;28;20044;-62
2023/06/03 10:38:21;;;;;;;0.85;0.40;;;21.40;51.00;;;;;;5073079;28;20049;-62
2023/06/03 10:40:48;;;;;;;0.60;0.30;;;21.50;51.00;;;;;;5073494;28;20040;-62
2023/06/03 10:43:13;;;;;;;1.08;0.40;;;21.40;50.90;;;;;;5072762;28;20053;-61
2023/06/03 10:45:39;;;;;;;0.68;0.35;;;21.40;50.80;;;;;;5056645;28;20051;-62
2023/06/03 10:48:07;;;;;;;1.88;0.30;;;21.40;50.80;;;;;;5072537;28;20083;-61
2023/06/03 10:50:56;;;;;;;0.82;0.47;;;21.50;50.80;;;;;;5056129;28;20446;-62
2023/06/03 10:53:24;;;;;;;1.15;0.40;;;21.50;50.80;;;;;;5072758;28;20423;-62
2023/06/03 10:56:08;;;;;;;0.75;0.40;;;21.50;50.80;;;;;;5073542;28;20110;-62
2023/06/03 10:58:33;;;;;;;1.27;0.40;;;21.50;50.80;;;;;;5073867;28;20074;-61
2023/06/03 11:01:05;;;;;;;0.75;0.40;;;21.50;50.80;;;;;;5073216;28;20056;-61
2023/06/03 11:03:31;;;;;;;1.10;0.40;;;21.50;50.90;;;;;;5073920;28;20032;-61
2023/06/03 11:06:35;;;;;;;0.90;0.30;;;21.50;50.80;;;;;;5074086;28;20055;-61
2023/06/03 11:09:05;;;;;;;0.40;0.30;;;21.50;50.90;;;;;;5050812;28;20041;-61
2023/06/03 11:11:40;;;;;;;1.60;0.35;;;21.50;50.90;;;;;;5070275;28;20045;-62
2023/06/03 11:14:06;;;;;;;2.72;0.50;;;21.50;50.80;;;;;;5073574;28;20056;-61
2023/06/03 11:16:57;;;;;;;0.85;0.40;;;21.50;50.90;;;;;;5072801;28;20404;-62
2023/06/03 11:19:45;;;;;;;0.60;0.30;;;21.50;50.80;;;;;;5072179;28;20068;-61
2023/06/03 11:22:13;;;;;;;1.08;0.40;;;21.50;50.90;;;;;;5072700;28;20166;-61
2023/06/03 11:24:42;;;;;;;2.40;0.40;;;21.50;50.80;;;;;;5073438;28;20045;-61
2023/06/03 11:29:42;;;;;;;;;;;21.50;50.80;;;;;;5073258;28;20052;-62
2023/06/03 11:32:18;;;;;;;0.85;0.30;;;21.50;50.90;;;;;;5072250;28;20272;-62
2023/06/03 11:34:44;;;;;;;0.82;0.30;;;21.50;50.80;;;;;;5073479;28;20041;-61
2023/06/03 11:37:15;;;;;;;0.50;0.30;;;21.50;50.70;;;;;;5071164;28;20043;-61
2023/06/03 11:40:05;;;;;;;0.57;0.20;;;21.60;50.70;;;;;;5073354;28;20068;-62
2023/06/03 11:42:49;;;;;;;0.70;0.30;;;21.60;50.70;;;;;;5073119;28;20037;-61
2023/06/03 11:45:29;;;;;;;2.17;0.30;;;21.60;50.80;;;;;;5072222;28;20044;-61
2023/06/03 11:47:59;;;;;;;0.60;0.30;;;21.60;50.70;;;;;;5071971;28;20186;-62
2023/06/03 11:50:32;;;;;;;1.15;0.40;;;21.60;50.70;;;;;;5072160;28;20040;-61
2023/06/03 11:52:57;;;;;;;0.98;0.40;;;21.60;50.80;;;;;;5073270;28;20043;-62
2023/06/03 11:55:27;;;;;;;1.55;0.40;;;21.60;50.80;;;;;;5072690;28;20033;-62
2023/06/03 11:57:56;;;;;;;0.80;0.30;;;21.60;50.80;;;;;;5072380;28;20044;-61
2023/06/03 12:00:21;;;;;;;1.60;0.40;;;21.60;50.80;;;;;;5072726;28;20044;-61
2023/06/03 12:02:48;;;;;;;1.60;0.40;;;21.60;50.80;;;;;;5073264;28;20055;-61
2023/06/03 12:05:15;;;;;;;0.40;0.30;;;21.60;50.80;;;;;;5072074;28;20045;-62
2023/06/03 12:07:43;;;;;;;1.13;0.40;;;21.60;50.80;;;;;;5073107;28;20033;-62
2023/06/03 12:10:09;;;;;;;;;;;21.60;50.80;;;;;;5072736;28;20089;-61
2023/06/03 12:12:35;;;;;;;0.98;0.30;;;21.60;50.90;;;;;;5072376;28;20375;-62
2023/06/03 12:15:05;;;;;;;0.73;0.30;;;21.60;50.80;;;;;;5072564;28;20045;-61
2023/06/03 12:17:31;;;;;;;0.73;0.30;;;21.60;50.80;;;;;;5072788;28;20472;-61
2023/06/03 12:19:59;;;;;;;1.00;0.40;;;21.60;50.80;;;;;;5072229;28;20091;-61
2023/06/03 12:22:28;;;;;;;1.17;0.30;;;21.60;50.70;;;;;;5071355;28;20052;-61
2023/06/03 12:24:54;;;;;;;0.82;0.30;;;21.60;50.70;;;;;;5072869;28;20044;-61
2023/06/03 12:27:22;;;;;;;1.10;0.40;;;21.60;50.80;;;;;;5071546;28;20094;-61
2023/06/03 12:29:51;;;;;;;0.38;0.30;;;21.70;50.80;;;;;;5071304;28;20049;-61
2023/06/03 12:32:17;;;;;;;1.52;0.30;;;21.70;50.80;;;;;;5071668;28;20063;-61
2023/06/03 12:34:43;;;;;;;0.85;0.40;;;21.70;50.80;;;;;;5072743;28;20112;-61
2023/06/03 12:37:08;;;;;;;0.52;0.30;;;21.70;50.80;;;;;;5072174;28;20097;-61
2023/06/03 12:39:49;;;;;;;0.68;0.35;;;21.70;50.80;;;;;;5071980;28;20041;-61
2023/06/03 12:42:20;;;;;;;1.23;0.40;;;21.70;50.80;;;;;;5072731;28;20041;-61
2023/06/03 12:44:50;;;;;;;0.60;0.40;;;21.70;50.80;;;;;;5076653;28;20045;-61
2023/06/03 12:47:16;;;;;;;1.92;0.30;;;21.70;50.80;;;;;;5075467;28;20044;-61
2023/06/03 12:49:43;;;;;;;1.00;0.40;;;21.70;50.80;;;;;;5076349;28;20519;-61
2023/06/03 12:52:13;;;;;;;0.77;0.30;;;21.70;50.70;;;;;;5076144;28;20124;-61
2023/06/03 12:54:40;;;;;;;1.73;0.40;;;21.70;50.70;;;;;;5075768;28;20075;-61